Time,TemperatureF,DewpointF,PressureIn,WindDirection,WindDirectionDegrees,WindSpeedMPH,WindSpeedGustMPH,Humidity,HourlyPrecipIn,Conditions,Clouds,dailyrainin,SoftwareType,DateUTC
2013-01-17 00:00:00,33.9,31.3,30.56,North,0,1.0,4.0,90,0.00,,,0.00,WUHU216DAVISVP2,2013-01-17 08:00:00,
2013-01-17 00:04:00,33.9,31.2,30.56,ENE,57,2.0,4.0,90,0.00,,,0.00,WUHU216DAVISVP2,2013-01-17 08:04:00,
2013-01-17 00:09:00,33.8,31.1,30.56,NNW,338,4.0,4.0,90,0.00,,,0.00,WUHU216DAVISVP2,2013-01-17 08:09:00,
2013-01-17 00:14:00,33.8,31.1,30.56,NNW,345,1.0,4.0,90,0.00,,,0.00,WUHU216DAVISVP2,2013-01-17 08:14:00,
2013-01-17 00:19:00,33.7,31.0,30.56,North,8,1.0,4.0,90,0.00,,,0.00,WUHU216DAVISVP2,2013-01-17 08:19:00,
2013-01-17 00:24:00,33.7,31.0,30.56,ESE,118,0.0,4.0,90,0.00,,,0.00,WUHU216DAVISVP2,2013-01-17 08:24:00,
2013-01-17 00:29:00,33.5,30.8,30.56,NNE,21,2.0,3.0,90,0.00,,,0.00,WUHU216DAVISVP2,2013-01-17 08:29:00,
2013-01-17 00:30:00,33.5,30.9,30.56,North,0,1.0,4.0,90,0.00,,,0.00,WUHU216DAVISVP2,2013-01-17 08:30:00,
2013-01-17 00:34:00,33.4,31.0,30.56,NE,48,2.0,3.0,91,0.00,,,0.00,WUHU216DAVISVP2,2013-01-17 08:34:00,
2013-01-17 00:39:00,33.3,30.9,30.56,ENE,70,1.0,3.0,91,0.00,,,0.00,WUHU216DAVISVP2,2013-01-17 08:39:00,
2013-01-17 00:44:00,33.2,30.8,30.56,SE,130,0.0,2.0,91,0.00,,,0.00,WUHU216DAVISVP2,2013-01-17 08:44:00,
2013-01-17 00:49:00,33.1,30.7,30.56,ENE,57,1.0,2.0,91,0.00,,,0.00,WUHU216DAVISVP2,2013-01-17 08:49:00,
2013-01-17 00:54:00,33.1,30.7,30.56,ENE,63,0.0,4.0,91,0.00,,,0.00,WUHU216DAVISVP2,2013-01-17 08:54:00,
2013-01-17 00:59:00,33.0,30.7,30.56,North,360,1.0,4.0,91,0.00,,,0.00,WUHU216DAVISVP2,2013-01-17 08:59:00,
2013-01-17 01:00:00,33.0,30.7,30.56,ENE,68,1.0,4.0,91,0.00,,,0.00,WUHU216DAVISVP2,2013-01-17 09:00:00,
2013-01-17 01:04:00,32.8,30.5,30.56,NE,56,0.0,3.0,91,0.00,,,0.00,WUHU216DAVISVP2,2013-01-17 09:04:00,
2013-01-17 01:09:00,32.7,30.3,30.56,North,8,1.0,3.0,91,0.00,,,0.00,WUHU216DAVISVP2,2013-01-17 09:09:00,
2013-01-17 01:14:00,32.6,30.2,30.55,ENE,73,0.0,3.0,91,0.00,,,0.00,WUHU216DAVISVP2,2013-01-17 09:14:00,
2013-01-17 01:19:00,32.5,30.4,30.56,East,82,0.0,3.0,92,0.00,,,0.00,WUHU216DAVISVP2,2013-01-17 09:19:00,
2013-01-17 01:25:00,32.4,30.3,30.56,East,79,0.0,2.0,92,0.00,,,0.00,WUHU216DAVISVP2,2013-01-17 09:25:00,
2013-01-17 01:29:00,32.5,30.4,30.56,NNE,20,0.0,3.0,92,0.00,,,0.00,WUHU216DAVISVP2,2013-01-17 09:29:00,
2013-01-17 01:30:00,32.5,30.4,30.56,ENE,68,0.0,3.0,92,0.00,,,0.00,WUHU216DAVISVP2,2013-01-17 09:30:00,
2013-01-17 01:34:00,32.7,30.6,30.56,NNW,338,1.0,3.0,92,0.00,,,0.00,WUHU216DAVISVP2,2013-01-17 09:34:00,
2013-01-17 01:40:00,32.8,30.7,30.56,NE,53,0.0,3.0,92,0.00,,,0.00,WUHU216DAVISVP2,2013-01-17 09:40:00,
2013-01-17 01:44:00,32.7,30.6,30.56,ENE,60,0.0,3.0,92,0.00,,,0.00,WUHU216DAVISVP2,2013-01-17 09:44:00,
2013-01-17 01:49:00,32.8,30.7,30.56,North,358,2.0,4.0,92,0.00,,,0.00,WUHU216DAVISVP2,2013-01-17 09:49:00,
2013-01-17 01:54:00,32.8,30.7,30.56,ENE,70,0.0,4.0,92,0.00,,,0.00,WUHU216DAVISVP2,2013-01-17 09:54:00,
2013-01-17 01:59:00,32.8,30.7,30.56,North,10,2.0,3.0,92,0.00,,,0.00,WUHU216DAVISVP2,2013-01-17 09:59:00,
2013-01-17 02:00:00,32.8,30.7,30.56,NNE,23,1.0,4.0,92,0.00,,,0.00,WUHU216DAVISVP2,2013-01-17 10:00:00,
2013-01-17 02:04:00,32.8,30.7,30.56,NNW,336,1.0,3.0,92,0.00,,,0.00,WUHU216DAVISVP2,2013-01-17 10:04:00,
2013-01-17 02:09:00,32.8,30.7,30.56,NNE,33,1.0,3.0,92,0.00,,,0.00,WUHU216DAVISVP2,2013-01-17 10:09:00,
2013-01-17 02:14:00,32.8,30.7,30.56,NE,47,1.0,3.0,92,0.00,,,0.00,WUHU216DAVISVP2,2013-01-17 10:14:00,
2013-01-17 02:19:00,32.6,30.5,30.55,NE,51,0.0,3.0,92,0.00,,,0.00,WUHU216DAVISVP2,2013-01-17 10:19:00,
2013-01-17 02:24:00,32.4,30.3,30.55,ENE,73,1.0,3.0,92,0.00,,,0.00,WUHU216DAVISVP2,2013-01-17 10:24:00,
2013-01-17 02:29:00,32.2,30.1,30.55,East,80,1.0,3.0,92,0.00,,,0.00,WUHU216DAVISVP2,2013-01-17 10:29:00,
2013-01-17 02:30:00,32.2,30.1,30.55,ENE,68,1.0,3.0,92,0.00,,,0.00,WUHU216DAVISVP2,2013-01-17 10:30:00,
2013-01-17 02:34:00,32.0,29.9,30.55,East,79,0.0,2.0,92,0.00,,,0.00,WUHU216DAVISVP2,2013-01-17 10:34:00,
2013-01-17 02:39:00,31.8,30.0,30.55,NE,43,0.0,2.0,93,0.00,,,0.00,WUHU216DAVISVP2,2013-01-17 10:39:00,
2013-01-17 02:44:00,31.9,30.1,30.55,ENE,74,0.0,2.0,93,0.00,,,0.00,WUHU216DAVISVP2,2013-01-17 10:44:00,
2013-01-17 02:49:00,31.8,30.0,30.54,ENE,72,0.0,1.0,93,0.00,,,0.00,WUHU216DAVISVP2,2013-01-17 10:49:00,
2013-01-17 02:54:00,31.7,29.9,30.54,East,85,0.0,2.0,93,0.00,,,0.00,WUHU216DAVISVP2,2013-01-17 10:54:00,
2013-01-17 02:59:00,31.6,29.8,30.54,ENE,77,0.0,2.0,93,0.00,,,0.00,WUHU216DAVISVP2,2013-01-17 10:59:00,
2013-01-17 03:00:00,31.6,29.8,30.54,ENE,68,0.0,2.0,93,0.00,,,0.00,WUHU216DAVISVP2,2013-01-17 11:00:00,
2013-01-17 03:04:00,31.7,29.9,30.54,ENE,76,2.0,2.0,93,0.00,,,0.00,WUHU216DAVISVP2,2013-01-17 11:04:00,
2013-01-17 03:09:00,31.7,29.9,30.54,ENE,72,0.0,2.0,93,0.00,,,0.00,WUHU216DAVISVP2,2013-01-17 11:09:00,
2013-01-17 03:14:00,31.7,29.9,30.54,ENE,77,0.0,2.0,93,0.00,,,0.00,WUHU216DAVISVP2,2013-01-17 11:14:00,
2013-01-17 03:19:00,31.6,29.8,30.53,East,79,0.0,2.0,93,0.00,,,0.00,WUHU216DAVISVP2,2013-01-17 11:19:00,
2013-01-17 03:25:00,31.5,29.7,30.53,East,82,1.0,2.0,93,0.00,,,0.00,WUHU216DAVISVP2,2013-01-17 11:25:00,
2013-01-17 03:30:00,31.5,29.9,30.53,ENE,63,1.0,3.0,94,0.00,,,0.00,WUHU216DAVISVP2,2013-01-17 11:30:00,
2013-01-17 03:35:00,31.5,30.0,30.53,ENE,65,2.0,4.0,94,0.00,,,0.00,WUHU216DAVISVP2,2013-01-17 11:35:00,
2013-01-17 03:40:00,31.6,30.1,30.53,ENE,63,2.0,4.0,94,0.00,,,0.00,WUHU216DAVISVP2,2013-01-17 11:40:00,
2013-01-17 03:45:00,31.6,30.1,30.53,ENE,72,3.0,4.0,94,0.00,,,0.00,WUHU216DAVISVP2,2013-01-17 11:45:00,
2013-01-17 03:50:00,31.5,29.9,30.52,ENE,72,2.0,5.0,94,0.00,,,0.00,WUHU216DAVISVP2,2013-01-17 11:50:00,
2013-01-17 03:54:00,31.5,29.9,30.52,ENE,78,3.0,5.0,94,0.00,,,0.00,WUHU216DAVISVP2,2013-01-17 11:54:00,
2013-01-17 03:59:00,31.4,29.8,30.52,ENE,70,1.0,4.0,94,0.00,,,0.00,WUHU216DAVISVP2,2013-01-17 11:59:00,
2013-01-17 04:00:00,31.4,29.9,30.52,ENE,68,2.0,5.0,94,0.00,,,0.00,WUHU216DAVISVP2,2013-01-17 12:00:00,
2013-01-17 04:05:00,31.4,29.8,30.52,East,99,0.0,4.0,94,0.00,,,0.00,WUHU216DAVISVP2,2013-01-17 12:05:00,
2013-01-17 04:09:00,31.2,29.6,30.51,ENE,65,0.0,3.0,94,0.00,,,0.00,WUHU216DAVISVP2,2013-01-17 12:09:00,
2013-01-17 04:15:00,31.0,29.4,30.51,SSE,163,0.0,2.0,94,0.00,,,0.00,WUHU216DAVISVP2,2013-01-17 12:15:00,
2013-01-17 04:20:00,30.7,29.1,30.51,SSE,163,0.0,2.0,94,0.00,,,0.00,WUHU216DAVISVP2,2013-01-17 12:20:00,
2013-01-17 04:25:00,30.5,28.9,30.51,SSE,163,0.0,0.0,94,0.00,,,0.00,WUHU216DAVISVP2,2013-01-17 12:25:00,
2013-01-17 04:29:00,30.4,28.8,30.52,SSE,163,0.0,0.0,94,0.00,,,0.00,WUHU216DAVISVP2,2013-01-17 12:29:00,
2013-01-17 04:30:00,30.4,28.9,30.52,ENE,68,0.0,2.0,94,0.00,,,0.00,WUHU216DAVISVP2,2013-01-17 12:30:00,
2013-01-17 04:35:00,30.4,29.1,30.52,SSE,163,0.0,0.0,95,0.00,,,0.00,WUHU216DAVISVP2,2013-01-17 12:35:00,
2013-01-17 04:40:00,30.6,29.3,30.51,ENE,60,2.0,2.0,95,0.00,,,0.00,WUHU216DAVISVP2,2013-01-17 12:40:00,
2013-01-17 04:45:00,30.6,29.3,30.51,ENE,67,2.0,3.0,95,0.00,,,0.00,WUHU216DAVISVP2,2013-01-17 12:45:00,
2013-01-17 04:50:00,30.5,29.2,30.51,ENE,63,0.0,3.0,95,0.00,,,0.00,WUHU216DAVISVP2,2013-01-17 12:50:00,
2013-01-17 04:55:00,30.5,29.2,30.50,ENE,77,1.0,2.0,95,0.00,,,0.00,WUHU216DAVISVP2,2013-01-17 12:55:00,
2013-01-17 05:00:00,30.7,29.4,30.50,ENE,70,0.0,2.0,95,0.00,,,0.00,WUHU216DAVISVP2,2013-01-17 13:00:00,
2013-01-17 05:05:00,30.5,29.2,30.51,NNE,27,0.0,2.0,95,0.00,,,0.00,WUHU216DAVISVP2,2013-01-17 13:05:00,
2013-01-17 05:10:00,30.2,28.9,30.51,NNE,27,0.0,1.0,95,0.00,,,0.00,WUHU216DAVISVP2,2013-01-17 13:10:00,
2013-01-17 05:15:00,30.1,28.8,30.50,NNE,27,0.0,0.0,95,0.00,,,0.00,WUHU216DAVISVP2,2013-01-17 13:15:00,
2013-01-17 05:20:00,30.0,28.7,30.50,North,4,0.0,1.0,95,0.00,,,0.00,WUHU216DAVISVP2,2013-01-17 13:20:00,
2013-01-17 05:25:00,29.9,28.6,30.50,North,4,0.0,1.0,95,0.00,,,0.00,WUHU216DAVISVP2,2013-01-17 13:25:00,
2013-01-17 05:30:00,30.1,29.1,30.50,North,3,0.0,1.0,96,0.00,,,0.00,WUHU216DAVISVP2,2013-01-17 13:30:00,
2013-01-17 05:35:00,30.0,28.7,30.50,North,4,0.0,1.0,95,0.00,,,0.00,WUHU216DAVISVP2,2013-01-17 13:35:00,
2013-01-17 05:40:00,30.2,29.2,30.49,NE,36,0.0,0.0,96,0.00,,,0.00,WUHU216DAVISVP2,2013-01-17 13:40:00,
2013-01-17 05:45:00,30.5,29.5,30.49,ENE,75,0.0,1.0,96,0.00,,,0.00,WUHU216DAVISVP2,2013-01-17 13:45:00,
2013-01-17 05:50:00,30.7,29.7,30.49,ENE,75,0.0,1.0,96,0.00,,,0.00,WUHU216DAVISVP2,2013-01-17 13:50:00,
2013-01-17 05:55:00,30.7,29.7,30.49,ENE,75,0.0,1.0,96,0.00,,,0.00,WUHU216DAVISVP2,2013-01-17 13:55:00,
2013-01-17 06:00:00,30.6,29.3,30.49,NNE,12,0.0,1.0,95,0.00,,,0.00,WUHU216DAVISVP2,2013-01-17 14:00:00,
2013-01-17 06:05:00,30.7,29.4,30.49,NNE,12,0.0,1.0,95,0.00,,,0.00,WUHU216DAVISVP2,2013-01-17 14:05:00,
2013-01-17 06:10:00,30.6,29.3,30.49,North,11,0.0,1.0,95,0.00,,,0.00,WUHU216DAVISVP2,2013-01-17 14:10:00,
2013-01-17 06:15:00,30.6,29.3,30.49,NE,53,1.0,2.0,95,0.00,,,0.00,WUHU216DAVISVP2,2013-01-17 14:15:00,
2013-01-17 06:20:00,29.8,28.2,30.49,East,96,0.0,2.0,94,0.00,,,0.00,WUHU216DAVISVP2,2013-01-17 14:20:00,
2013-01-17 06:25:00,29.3,27.7,30.49,ENE,72,1.0,2.0,94,0.00,,,0.00,WUHU216DAVISVP2,2013-01-17 14:25:00,
2013-01-17 06:30:00,28.8,27.5,30.49,ENE,68,0.0,3.0,95,0.00,,,0.00,WUHU216DAVISVP2,2013-01-17 14:30:00,
2013-01-17 06:35:00,28.7,27.4,30.49,NE,41,1.0,3.0,95,0.00,,,0.00,WUHU216DAVISVP2,2013-01-17 14:35:00,
2013-01-17 06:40:00,28.6,27.6,30.49,ENE,63,1.0,3.0,96,0.00,,,0.00,WUHU216DAVISVP2,2013-01-17 14:40:00,
2013-01-17 06:45:00,28.6,27.6,30.49,ENE,63,1.0,3.0,96,0.00,,,0.00,WUHU216DAVISVP2,2013-01-17 14:45:00,
2013-01-17 06:50:00,28.5,27.5,30.49,East,89,2.0,3.0,96,0.00,,,0.00,WUHU216DAVISVP2,2013-01-17 14:50:00,
2013-01-17 06:55:00,28.4,27.4,30.49,East,84,2.0,4.0,96,0.00,,,0.00,WUHU216DAVISVP2,2013-01-17 14:55:00,
2013-01-17 07:00:00,28.3,27.3,30.49,East,82,2.0,4.0,96,0.00,,,0.00,WUHU216DAVISVP2,2013-01-17 15:00:00,
2013-01-17 07:05:00,28.3,27.3,30.49,ENE,66,0.0,4.0,96,0.00,,,0.00,WUHU216DAVISVP2,2013-01-17 15:05:00,
2013-01-17 07:10:00,28.3,27.3,30.49,ENE,77,1.0,4.0,96,0.00,,,0.00,WUHU216DAVISVP2,2013-01-17 15:10:00,
2013-01-17 07:15:00,28.1,27.1,30.49,ENE,65,0.0,3.0,96,0.00,,,0.00,WUHU216DAVISVP2,2013-01-17 15:15:00,
2013-01-17 07:20:00,28.0,27.0,30.49,NE,50,1.0,3.0,96,0.00,,,0.00,WUHU216DAVISVP2,2013-01-17 15:20:00,
2013-01-17 07:25:00,27.8,26.8,30.49,ENE,65,1.0,3.0,96,0.00,,,0.00,WUHU216DAVISVP2,2013-01-17 15:25:00,
2013-01-17 07:30:00,27.8,26.8,30.49,ENE,70,1.0,3.0,96,0.00,,,0.00,WUHU216DAVISVP2,2013-01-17 15:30:00,
2013-01-17 07:35:00,27.7,26.7,30.49,East,95,0.0,3.0,96,0.00,,,0.00,WUHU216DAVISVP2,2013-01-17 15:35:00,
2013-01-17 07:40:00,27.7,26.7,30.49,ENE,76,1.0,3.0,96,0.00,,,0.00,WUHU216DAVISVP2,2013-01-17 15:40:00,
2013-01-17 07:45:00,27.8,26.8,30.49,ENE,72,1.0,3.0,96,0.00,,,0.00,WUHU216DAVISVP2,2013-01-17 15:45:00,
2013-01-17 07:50:00,28.0,27.2,30.49,NE,55,0.0,3.0,97,0.00,,,0.00,WUHU216DAVISVP2,2013-01-17 15:50:00,
2013-01-17 07:55:00,28.2,27.4,30.49,ENE,77,1.0,3.0,97,0.00,,,0.00,WUHU216DAVISVP2,2013-01-17 15:55:00,
2013-01-17 08:00:00,28.3,27.5,30.49,East,101,0.0,3.0,97,0.00,,,0.00,WUHU216DAVISVP2,2013-01-17 16:00:00,
2013-01-17 08:05:00,28.4,27.6,30.49,East,80,2.0,3.0,97,0.00,,,0.00,WUHU216DAVISVP2,2013-01-17 16:05:00,
2013-01-17 08:10:00,28.4,27.6,30.49,ENE,77,3.0,4.0,97,0.00,,,0.00,WUHU216DAVISVP2,2013-01-17 16:10:00,
2013-01-17 08:15:00,28.5,27.7,30.49,ENE,68,0.0,4.0,97,0.00,,,0.00,WUHU216DAVISVP2,2013-01-17 16:15:00,
2013-01-17 08:20:00,28.7,27.9,30.49,ENE,71,1.0,4.0,97,0.00,,,0.00,WUHU216DAVISVP2,2013-01-17 16:20:00,
2013-01-17 08:25:00,28.8,28.0,30.49,NE,53,1.0,3.0,97,0.00,,,0.00,WUHU216DAVISVP2,2013-01-17 16:25:00,
2013-01-17 08:30:00,29.0,28.3,30.49,ENE,68,1.0,3.0,97,0.00,,,0.00,WUHU216DAVISVP2,2013-01-17 16:30:00,
2013-01-17 08:35:00,29.3,28.5,30.49,ENE,67,0.0,2.0,97,0.00,,,0.00,WUHU216DAVISVP2,2013-01-17 16:35:00,
2013-01-17 08:40:00,29.4,28.6,30.50,ENE,61,0.0,2.0,97,0.00,,,0.00,WUHU216DAVISVP2,2013-01-17 16:40:00,
2013-01-17 08:45:00,29.7,28.9,30.50,East,79,0.0,2.0,97,0.00,,,0.00,WUHU216DAVISVP2,2013-01-17 16:45:00,
2013-01-17 08:50:00,30.0,29.2,30.50,ENE,74,1.0,1.0,97,0.00,,,0.00,WUHU216DAVISVP2,2013-01-17 16:50:00,
2013-01-17 08:55:00,30.0,29.2,30.50,ENE,63,0.0,1.0,97,0.00,,,0.00,WUHU216DAVISVP2,2013-01-17 16:55:00,
2013-01-17 09:00:00,29.9,29.2,30.50,East,87,2.0,2.0,97,0.00,,,0.00,WUHU216DAVISVP2,2013-01-17 17:00:00,
2013-01-17 09:05:00,30.0,29.3,30.49,East,82,2.0,3.0,97,0.00,,,0.00,WUHU216DAVISVP2,2013-01-17 17:05:00,
2013-01-17 09:10:00,30.1,29.3,30.49,ENE,74,1.0,3.0,97,0.00,,,0.00,WUHU216DAVISVP2,2013-01-17 17:10:00,
2013-01-17 09:15:00,30.3,29.5,30.50,ENE,66,0.0,3.0,97,0.00,,,0.00,WUHU216DAVISVP2,2013-01-17 17:15:00,
2013-01-17 09:20:00,30.6,29.9,30.50,ESE,105,0.0,3.0,97,0.00,,,0.00,WUHU216DAVISVP2,2013-01-17 17:20:00,
2013-01-17 09:25:00,30.7,29.9,30.50,ENE,77,2.0,3.0,97,0.00,,,0.00,WUHU216DAVISVP2,2013-01-17 17:25:00,
2013-01-17 09:30:00,30.9,30.1,30.50,ENE,76,0.0,2.0,97,0.00,,,0.00,WUHU216DAVISVP2,2013-01-17 17:30:00,
2013-01-17 09:35:00,31.1,30.3,30.50,ENE,62,0.0,2.0,97,0.00,,,0.00,WUHU216DAVISVP2,2013-01-17 17:35:00,
2013-01-17 09:40:00,31.3,30.5,30.50,NE,55,0.0,2.0,97,0.00,,,0.00,WUHU216DAVISVP2,2013-01-17 17:40:00,
2013-01-17 09:45:00,31.4,30.6,30.50,ENE,70,1.0,2.0,97,0.00,,,0.00,WUHU216DAVISVP2,2013-01-17 17:45:00,
2013-01-17 09:50:00,31.5,30.7,30.50,ESE,107,0.0,1.0,97,0.00,,,0.00,WUHU216DAVISVP2,2013-01-17 17:50:00,
2013-01-17 09:55:00,31.6,30.8,30.50,NE,52,0.0,1.0,97,0.00,,,0.00,WUHU216DAVISVP2,2013-01-17 17:55:00,
2013-01-17 10:00:00,31.8,31.0,30.50,NE,52,0.0,1.0,97,0.00,,,0.00,WUHU216DAVISVP2,2013-01-17 18:00:00,
2013-01-17 10:05:00,32.1,31.3,30.50,NE,52,0.0,1.0,97,0.00,,,0.00,WUHU216DAVISVP2,2013-01-17 18:05:00,
2013-01-17 10:10:00,32.6,31.8,30.50,NE,53,0.0,1.0,97,0.00,,,0.00,WUHU216DAVISVP2,2013-01-17 18:10:00,
2013-01-17 10:15:00,32.7,31.9,30.50,South,174,0.0,0.0,97,0.00,,,0.00,WUHU216DAVISVP2,2013-01-17 18:15:00,
2013-01-17 10:20:00,33.1,32.3,30.50,South,174,0.0,1.0,97,0.00,,,0.00,WUHU216DAVISVP2,2013-01-17 18:20:00,
2013-01-17 10:25:00,33.5,32.7,30.50,South,174,0.0,1.0,97,0.00,,,0.00,WUHU216DAVISVP2,2013-01-17 18:25:00,
2013-01-17 10:30:00,33.5,32.7,30.50,South,174,0.0,1.0,97,0.00,,,0.00,WUHU216DAVISVP2,2013-01-17 18:30:00,
2013-01-17 10:35:00,33.6,32.8,30.50,SW,217,0.0,1.0,97,0.00,,,0.00,WUHU216DAVISVP2,2013-01-17 18:35:00,
2013-01-17 10:40:00,33.7,32.9,30.49,SW,215,0.0,1.0,97,0.00,,,0.00,WUHU216DAVISVP2,2013-01-17 18:40:00,
2013-01-17 10:45:00,33.9,33.1,30.49,SW,218,0.0,1.0,97,0.00,,,0.00,WUHU216DAVISVP2,2013-01-17 18:45:00,
2013-01-17 10:50:00,34.0,33.2,30.49,SW,221,0.0,1.0,97,0.00,,,0.00,WUHU216DAVISVP2,2013-01-17 18:50:00,
2013-01-17 10:55:00,34.3,33.5,30.49,SW,221,0.0,1.0,97,0.00,,,0.00,WUHU216DAVISVP2,2013-01-17 18:55:00,
2013-01-17 11:00:00,34.4,33.6,30.48,WSW,239,0.0,1.0,97,0.00,,,0.00,WUHU216DAVISVP2,2013-01-17 19:00:00,
2013-01-17 11:05:00,34.7,33.9,30.48,WSW,239,0.0,1.0,97,0.00,,,0.00,WUHU216DAVISVP2,2013-01-17 19:05:00,
2013-01-17 11:10:00,34.7,33.9,30.48,SW,228,0.0,1.0,97,0.00,,,0.00,WUHU216DAVISVP2,2013-01-17 19:10:00,
2013-01-17 11:15:00,34.9,34.1,30.48,SW,231,0.0,1.0,97,0.00,,,0.00,WUHU216DAVISVP2,2013-01-17 19:15:00,
2013-01-17 11:20:00,35.1,34.3,30.48,North,353,1.0,1.0,97,0.00,,,0.00,WUHU216DAVISVP2,2013-01-17 19:20:00,
2013-01-17 11:25:00,35.2,34.4,30.48,North,353,0.0,1.0,97,0.00,,,0.00,WUHU216DAVISVP2,2013-01-17 19:25:00,
2013-01-17 11:30:00,35.3,34.5,30.47,North,356,0.0,1.0,97,0.00,,,0.00,WUHU216DAVISVP2,2013-01-17 19:30:00,
2013-01-17 11:35:00,35.4,34.6,30.47,NE,56,0.0,1.0,97,0.00,,,0.00,WUHU216DAVISVP2,2013-01-17 19:35:00,
2013-01-17 11:40:00,35.4,34.6,30.48,NE,36,0.0,1.0,97,0.00,,,0.00,WUHU216DAVISVP2,2013-01-17 19:40:00,
2013-01-17 11:45:00,35.6,34.8,30.47,SSW,201,0.0,1.0,97,0.00,,,0.00,WUHU216DAVISVP2,2013-01-17 19:45:00,
2013-01-17 11:50:00,35.7,34.9,30.47,SSE,150,0.0,1.0,97,0.00,,,0.00,WUHU216DAVISVP2,2013-01-17 19:50:00,
2013-01-17 11:55:00,35.5,34.5,30.46,SW,215,0.0,4.0,96,0.00,,,0.00,WUHU216DAVISVP2,2013-01-17 19:55:00,
2013-01-17 12:00:00,35.5,34.5,30.46,SW,221,0.0,4.0,96,0.00,,,0.00,WUHU216DAVISVP2,2013-01-17 20:00:00,
2013-01-17 12:05:00,35.5,34.5,30.46,SSW,204,1.0,3.0,96,0.00,,,0.00,WUHU216DAVISVP2,2013-01-17 20:05:00,
2013-01-17 12:10:00,35.5,34.4,30.45,SW,221,0.0,3.0,96,0.00,,,0.00,WUHU216DAVISVP2,2013-01-17 20:10:00,
2013-01-17 12:15:00,35.8,34.7,30.45,SW,224,0.0,2.0,96,0.00,,,0.00,WUHU216DAVISVP2,2013-01-17 20:15:00,
2013-01-17 12:20:00,35.9,34.8,30.44,NNE,27,0.0,2.0,96,0.00,,,0.00,WUHU216DAVISVP2,2013-01-17 20:20:00,
2013-01-17 12:25:00,36.1,35.0,30.45,SW,225,0.0,2.0,96,0.00,,,0.00,WUHU216DAVISVP2,2013-01-17 20:25:00,
2013-01-17 12:30:00,36.3,35.2,30.45,NNE,23,1.0,2.0,96,0.00,,,0.00,WUHU216DAVISVP2,2013-01-17 20:30:00,
2013-01-17 12:35:00,36.3,35.2,30.44,NNE,32,0.0,2.0,96,0.00,,,0.00,WUHU216DAVISVP2,2013-01-17 20:35:00,
2013-01-17 12:40:00,36.4,35.3,30.44,NNE,24,0.0,1.0,96,0.00,,,0.00,WUHU216DAVISVP2,2013-01-17 20:40:00,
2013-01-17 12:45:00,36.3,35.0,30.43,WSW,249,0.0,1.0,95,0.00,,,0.00,WUHU216DAVISVP2,2013-01-17 20:45:00,
2013-01-17 12:50:00,36.4,35.1,30.43,SW,232,0.0,1.0,95,0.00,,,0.00,WUHU216DAVISVP2,2013-01-17 20:50:00,
2013-01-17 12:55:00,36.3,35.0,30.44,NNE,20,0.0,2.0,95,0.00,,,0.00,WUHU216DAVISVP2,2013-01-17 20:55:00,
2013-01-17 13:00:00,36.4,35.1,30.43,NNE,20,0.0,2.0,95,0.00,,,0.00,WUHU216DAVISVP2,2013-01-17 21:00:00,
2013-01-17 13:05:00,36.5,35.2,30.43,NNE,19,0.0,2.0,95,0.00,,,0.00,WUHU216DAVISVP2,2013-01-17 21:05:00,
2013-01-17 13:10:00,36.7,35.4,30.43,North,3,0.0,2.0,95,0.00,,,0.00,WUHU216DAVISVP2,2013-01-17 21:10:00,
2013-01-17 13:15:00,36.7,35.1,30.43,North,359,1.0,3.0,94,0.00,,,0.00,WUHU216DAVISVP2,2013-01-17 21:15:00,
2013-01-17 13:20:00,36.7,35.1,30.42,North,8,0.0,3.0,94,0.00,,,0.00,WUHU216DAVISVP2,2013-01-17 21:20:00,
2013-01-17 13:25:00,36.8,35.5,30.42,ESE,113,0.0,3.0,95,0.00,,,0.00,WUHU216DAVISVP2,2013-01-17 21:25:00,
2013-01-17 13:30:00,36.9,35.3,30.42,North,359,1.0,3.0,94,0.00,,,0.00,WUHU216DAVISVP2,2013-01-17 21:30:00,
2013-01-17 13:35:00,37.0,35.4,30.42,NNE,12,2.0,2.0,94,0.00,,,0.00,WUHU216DAVISVP2,2013-01-17 21:35:00,
2013-01-17 13:40:00,36.7,34.8,30.42,NNW,344,0.0,2.0,93,0.00,,,0.00,WUHU216DAVISVP2,2013-01-17 21:40:00,
2013-01-17 13:45:00,36.6,34.7,30.42,North,1,0.0,2.0,93,0.00,,,0.00,WUHU216DAVISVP2,2013-01-17 21:45:00,
2013-01-17 13:50:00,36.9,35.3,30.42,SW,218,1.0,2.0,94,0.00,,,0.00,WUHU216DAVISVP2,2013-01-17 21:50:00,
2013-01-17 13:55:00,37.0,35.1,30.41,SSW,208,0.0,2.0,93,0.00,,,0.00,WUHU216DAVISVP2,2013-01-17 21:55:00,
2013-01-17 14:00:00,37.5,35.6,30.41,North,355,1.0,2.0,93,0.00,,,0.00,WUHU216DAVISVP2,2013-01-17 22:00:00,
2013-01-17 14:05:00,37.3,35.1,30.41,NNW,340,0.0,2.0,92,0.00,,,0.00,WUHU216DAVISVP2,2013-01-17 22:05:00,
2013-01-17 14:10:00,37.3,35.4,30.40,NNW,340,0.0,2.0,93,0.00,,,0.00,WUHU216DAVISVP2,2013-01-17 22:10:00,
2013-01-17 14:15:00,37.4,35.5,30.40,North,356,0.0,2.0,93,0.00,,,0.00,WUHU216DAVISVP2,2013-01-17 22:15:00,
2013-01-17 14:20:00,37.6,35.7,30.40,North,1,0.0,1.0,93,0.00,,,0.00,WUHU216DAVISVP2,2013-01-17 22:20:00,
2013-01-17 14:25:00,37.6,35.5,30.40,North,8,0.0,1.0,92,0.00,,,0.00,WUHU216DAVISVP2,2013-01-17 22:25:00,
2013-01-17 14:30:00,37.6,35.4,30.40,North,9,0.0,1.0,92,0.00,,,0.00,WUHU216DAVISVP2,2013-01-17 22:30:00,
2013-01-17 14:35:00,37.5,35.3,30.40,North,6,0.0,1.0,92,0.00,,,0.00,WUHU216DAVISVP2,2013-01-17 22:35:00,
2013-01-17 14:40:00,37.3,35.2,30.39,ENE,58,0.0,2.0,92,0.00,,,0.00,WUHU216DAVISVP2,2013-01-17 22:40:00,
2013-01-17 14:45:00,37.0,34.9,30.39,East,93,0.0,2.0,92,0.00,,,0.00,WUHU216DAVISVP2,2013-01-17 22:45:00,
2013-01-17 14:50:00,37.0,34.9,30.39,East,84,0.0,2.0,92,0.00,,,0.00,WUHU216DAVISVP2,2013-01-17 22:50:00,
2013-01-17 14:55:00,36.9,34.7,30.39,NE,36,0.0,2.0,92,0.00,,,0.00,WUHU216DAVISVP2,2013-01-17 22:55:00,
2013-01-17 15:00:00,36.8,34.7,30.39,NE,45,0.0,1.0,92,0.00,,,0.00,WUHU216DAVISVP2,2013-01-17 23:00:00,
2013-01-17 15:05:00,36.9,35.1,30.39,NE,46,0.0,1.0,93,0.00,,,0.00,WUHU216DAVISVP2,2013-01-17 23:05:00,
2013-01-17 15:10:00,36.9,34.8,30.38,NE,46,0.0,1.0,92,0.00,,,0.00,WUHU216DAVISVP2,2013-01-17 23:10:00,
2013-01-17 15:15:00,37.0,35.2,30.38,NE,46,0.0,1.0,93,0.00,,,0.00,WUHU216DAVISVP2,2013-01-17 23:15:00,
2013-01-17 15:20:00,37.4,35.5,30.38,SW,232,0.0,1.0,93,0.00,,,0.00,WUHU216DAVISVP2,2013-01-17 23:20:00,
2013-01-17 15:25:00,37.5,35.3,30.38,WSW,247,0.0,1.0,92,0.00,,,0.00,WUHU216DAVISVP2,2013-01-17 23:25:00,
2013-01-17 15:30:00,37.5,35.3,30.38,WSW,250,0.0,1.0,92,0.00,,,0.00,WUHU216DAVISVP2,2013-01-17 23:30:00,
2013-01-17 15:35:00,37.6,35.4,30.38,NW,314,0.0,1.0,92,0.00,,,0.00,WUHU216DAVISVP2,2013-01-17 23:35:00,
2013-01-17 15:40:00,37.6,35.5,30.38,NE,34,0.0,1.0,92,0.00,,,0.00,WUHU216DAVISVP2,2013-01-17 23:40:00,
2013-01-17 15:45:00,37.5,35.4,30.38,NE,34,0.0,1.0,92,0.00,,,0.00,WUHU216DAVISVP2,2013-01-17 23:45:00,
2013-01-17 15:50:00,37.5,35.3,30.38,NE,34,0.0,1.0,92,0.00,,,0.00,WUHU216DAVISVP2,2013-01-17 23:50:00,
2013-01-17 15:55:00,37.3,35.1,30.38,NE,34,0.0,1.0,92,0.00,,,0.00,WUHU216DAVISVP2,2013-01-17 23:55:00,
2013-01-17 16:00:00,37.1,34.9,30.38,NE,34,0.0,1.0,92,0.00,,,0.00,WUHU216DAVISVP2,2013-01-18 00:00:00,
2013-01-17 16:05:00,36.9,34.7,30.38,NE,34,0.0,1.0,92,0.00,,,0.00,WUHU216DAVISVP2,2013-01-18 00:05:00,
2013-01-17 16:10:00,36.8,34.6,30.38,NE,34,0.0,1.0,92,0.00,,,0.00,WUHU216DAVISVP2,2013-01-18 00:10:00,
2013-01-17 16:15:00,36.7,34.5,30.38,NE,34,0.0,0.0,92,0.00,,,0.00,WUHU216DAVISVP2,2013-01-18 00:15:00,
2013-01-17 16:20:00,36.5,34.6,30.38,NE,34,0.0,0.0,93,0.00,,,0.00,WUHU216DAVISVP2,2013-01-18 00:20:00,
2013-01-17 16:25:00,36.4,34.5,30.38,NE,34,0.0,0.0,93,0.00,,,0.00,WUHU216DAVISVP2,2013-01-18 00:25:00,
2013-01-17 16:30:00,36.4,34.5,30.38,NE,34,0.0,1.0,93,0.00,,,0.00,WUHU216DAVISVP2,2013-01-18 00:30:00,
2013-01-17 16:35:00,36.3,34.4,30.38,NE,34,0.0,1.0,93,0.00,,,0.00,WUHU216DAVISVP2,2013-01-18 00:35:00,
2013-01-17 16:40:00,36.2,34.3,30.38,WSW,241,1.0,2.0,93,0.00,,,0.00,WUHU216DAVISVP2,2013-01-18 00:40:00,
2013-01-17 16:45:00,36.1,34.5,30.38,SW,221,0.0,2.0,94,0.00,,,0.00,WUHU216DAVISVP2,2013-01-18 00:45:00,
2013-01-17 16:50:00,35.9,34.3,30.38,ESE,107,0.0,2.0,94,0.00,,,0.00,WUHU216DAVISVP2,2013-01-18 00:50:00,
2013-01-17 16:55:00,35.9,34.3,30.38,SE,136,0.0,2.0,94,0.00,,,0.00,WUHU216DAVISVP2,2013-01-18 00:55:00,
2013-01-17 17:00:00,35.8,34.5,30.38,SE,143,0.0,1.0,95,0.00,,,0.00,WUHU216DAVISVP2,2013-01-18 01:00:00,
2013-01-17 17:05:00,35.7,34.4,30.38,SW,228,0.0,1.0,95,0.00,,,0.00,WUHU216DAVISVP2,2013-01-18 01:05:00,
2013-01-17 17:10:00,35.7,34.4,30.38,SW,228,0.0,1.0,95,0.00,,,0.00,WUHU216DAVISVP2,2013-01-18 01:10:00,
2013-01-17 17:15:00,35.7,34.4,30.38,SW,228,0.0,1.0,95,0.00,,,0.00,WUHU216DAVISVP2,2013-01-18 01:15:00,
2013-01-17 17:20:00,35.7,34.4,30.38,SW,229,0.0,1.0,95,0.00,,,0.00,WUHU216DAVISVP2,2013-01-18 01:20:00,
2013-01-17 17:25:00,35.6,34.3,30.37,WSW,253,0.0,1.0,95,0.00,,,0.00,WUHU216DAVISVP2,2013-01-18 01:25:00,
2013-01-17 17:30:00,35.6,34.3,30.37,SW,236,0.0,1.0,95,0.00,,,0.00,WUHU216DAVISVP2,2013-01-18 01:30:00,
2013-01-17 17:35:00,35.5,34.2,30.37,SW,229,0.0,1.0,95,0.00,,,0.00,WUHU216DAVISVP2,2013-01-18 01:35:00,
2013-01-17 17:40:00,35.5,34.2,30.38,ENE,66,0.0,2.0,95,0.00,,,0.00,WUHU216DAVISVP2,2013-01-18 01:40:00,
2013-01-17 17:45:00,35.5,34.2,30.37,SE,130,1.0,3.0,95,0.00,,,0.00,WUHU216DAVISVP2,2013-01-18 01:45:00,
2013-01-17 17:50:00,35.5,34.2,30.37,ESE,123,2.0,3.0,95,0.00,,,0.00,WUHU216DAVISVP2,2013-01-18 01:50:00,
2013-01-17 17:55:00,35.5,34.4,30.37,SE,145,0.0,3.0,96,0.00,,,0.00,WUHU216DAVISVP2,2013-01-18 01:55:00,
2013-01-17 18:00:00,35.4,34.4,30.37,East,101,0.0,3.0,96,0.00,,,0.00,WUHU216DAVISVP2,2013-01-18 02:00:00,
2013-01-17 18:05:00,35.4,34.4,30.37,SSE,148,0.0,2.0,96,0.00,,,0.00,WUHU216DAVISVP2,2013-01-18 02:05:00,
2013-01-17 18:10:00,35.4,34.3,30.37,ENE,73,0.0,2.0,96,0.00,,,0.00,WUHU216DAVISVP2,2013-01-18 02:10:00,
2013-01-17 18:15:00,35.3,34.2,30.37,ENE,74,0.0,1.0,96,0.00,,,0.00,WUHU216DAVISVP2,2013-01-18 02:15:00,
2013-01-17 18:20:00,35.4,34.3,30.37,SW,231,0.0,1.0,96,0.00,,,0.00,WUHU216DAVISVP2,2013-01-18 02:20:00,
2013-01-17 18:25:00,35.3,34.2,30.37,ENE,65,1.0,2.0,96,0.00,,,0.00,WUHU216DAVISVP2,2013-01-18 02:25:00,
2013-01-17 18:30:00,35.2,34.1,30.37,West,259,0.0,2.0,96,0.00,,,0.00,WUHU216DAVISVP2,2013-01-18 02:30:00,
2013-01-17 18:35:00,35.2,34.1,30.37,West,259,0.0,2.0,96,0.00,,,0.00,WUHU216DAVISVP2,2013-01-18 02:35:00,
2013-01-17 18:40:00,35.1,34.0,30.37,SE,129,0.0,2.0,96,0.00,,,0.00,WUHU216DAVISVP2,2013-01-18 02:40:00,
2013-01-17 18:45:00,35.1,34.0,30.36,SW,226,0.0,2.0,96,0.00,,,0.00,WUHU216DAVISVP2,2013-01-18 02:45:00,
2013-01-17 18:50:00,35.0,34.0,30.36,WSW,246,2.0,2.0,96,0.00,,,0.00,WUHU216DAVISVP2,2013-01-18 02:50:00,
2013-01-17 18:55:00,35.0,33.9,30.36,West,259,1.0,2.0,96,0.00,,,0.00,WUHU216DAVISVP2,2013-01-18 02:55:00,
2013-01-17 19:00:00,35.0,33.9,30.36,SW,229,0.0,2.0,96,0.00,,,0.00,WUHU216DAVISVP2,2013-01-18 03:00:00,
2013-01-17 19:05:00,35.1,34.0,30.36,SSE,160,2.0,2.0,96,0.00,,,0.00,WUHU216DAVISVP2,2013-01-18 03:05:00,
2013-01-17 19:10:00,35.1,34.3,30.36,SW,216,1.0,5.0,97,0.00,,,0.00,WUHU216DAVISVP2,2013-01-18 03:10:00,
2013-01-17 19:15:00,35.1,34.3,30.36,SW,232,2.0,5.0,97,0.00,,,0.00,WUHU216DAVISVP2,2013-01-18 03:15:00,
2013-01-17 19:20:00,35.2,34.4,30.36,SSW,210,0.0,5.0,97,0.00,,,0.00,WUHU216DAVISVP2,2013-01-18 03:20:00,
2013-01-17 19:25:00,35.2,34.4,30.36,SW,221,3.0,5.0,97,0.00,,,0.00,WUHU216DAVISVP2,2013-01-18 03:25:00,
2013-01-17 19:30:00,35.1,34.3,30.36,West,262,0.0,4.0,97,0.00,,,0.00,WUHU216DAVISVP2,2013-01-18 03:30:00,
2013-01-17 19:35:00,35.1,34.3,30.36,South,176,0.0,3.0,97,0.00,,,0.00,WUHU216DAVISVP2,2013-01-18 03:35:00,
2013-01-17 19:40:00,35.0,34.2,30.36,SW,236,0.0,3.0,97,0.00,,,0.00,WUHU216DAVISVP2,2013-01-18 03:40:00,
2013-01-17 19:45:00,35.1,34.3,30.36,SW,235,0.0,3.0,97,0.00,,,0.00,WUHU216DAVISVP2,2013-01-18 03:45:00,
2013-01-17 19:50:00,35.1,34.3,30.37,SW,236,0.0,3.0,97,0.00,,,0.00,WUHU216DAVISVP2,2013-01-18 03:50:00,
2013-01-17 19:55:00,35.1,34.3,30.37,NNE,13,0.0,3.0,97,0.00,,,0.00,WUHU216DAVISVP2,2013-01-18 03:55:00,
2013-01-17 20:00:00,34.9,34.1,30.37,SW,232,0.0,2.0,97,0.00,,,0.00,WUHU216DAVISVP2,2013-01-18 04:00:00,
2013-01-17 20:05:00,34.8,34.0,30.37,SW,229,0.0,2.0,97,0.00,,,0.00,WUHU216DAVISVP2,2013-01-18 04:05:00,
2013-01-17 20:10:00,34.8,34.0,30.36,SW,229,0.0,1.0,97,0.00,,,0.00,WUHU216DAVISVP2,2013-01-18 04:10:00,
2013-01-17 20:15:00,34.7,33.9,30.36,WSW,248,0.0,1.0,97,0.00,,,0.00,WUHU216DAVISVP2,2013-01-18 04:15:00,
2013-01-17 20:20:00,34.7,33.9,30.36,WSW,248,0.0,1.0,97,0.00,,,0.00,WUHU216DAVISVP2,2013-01-18 04:20:00,
2013-01-17 20:25:00,34.7,33.9,30.36,WSW,248,0.0,1.0,97,0.00,,,0.00,WUHU216DAVISVP2,2013-01-18 04:25:00,
2013-01-17 20:30:00,34.6,33.8,30.36,West,269,0.0,2.0,97,0.00,,,0.00,WUHU216DAVISVP2,2013-01-18 04:30:00,
2013-01-17 20:35:00,34.6,33.8,30.36,East,85,0.0,2.0,97,0.00,,,0.00,WUHU216DAVISVP2,2013-01-18 04:35:00,
2013-01-17 20:40:00,34.7,33.9,30.36,East,91,0.0,2.0,97,0.00,,,0.00,WUHU216DAVISVP2,2013-01-18 04:40:00,
2013-01-17 20:45:00,34.8,34.0,30.36,SE,145,0.0,1.0,97,0.00,,,0.00,WUHU216DAVISVP2,2013-01-18 04:45:00,
2013-01-17 20:50:00,34.9,34.1,30.36,SSE,163,0.0,1.0,97,0.00,,,0.00,WUHU216DAVISVP2,2013-01-18 04:50:00,
2013-01-17 20:55:00,34.9,34.1,30.36,SSE,159,0.0,1.0,97,0.00,,,0.00,WUHU216DAVISVP2,2013-01-18 04:55:00,
2013-01-17 21:00:00,35.0,34.2,30.36,SSW,204,1.0,1.0,97,0.00,,,0.00,WUHU216DAVISVP2,2013-01-18 05:00:00,
2013-01-17 21:02:00,35.1,34.3,30.36,ESE,103,0.0,2.0,97,0.00,,,0.00,WUHU216DAVISVP2,2013-01-18 05:02:00,
2013-01-17 21:07:00,35.0,34.2,30.36,East,96,0.0,2.0,97,0.00,,,0.00,WUHU216DAVISVP2,2013-01-18 05:07:00,
2013-01-17 21:12:00,35.0,34.2,30.36,East,85,1.0,2.0,97,0.00,,,0.00,WUHU216DAVISVP2,2013-01-18 05:12:00,
2013-01-17 21:17:00,35.0,34.2,30.35,ENE,70,1.0,2.0,97,0.00,,,0.00,WUHU216DAVISVP2,2013-01-18 05:17:00,
2013-01-17 21:22:00,35.0,34.2,30.35,ENE,77,1.0,1.0,97,0.00,,,0.00,WUHU216DAVISVP2,2013-01-18 05:22:00,
2013-01-17 21:27:00,35.1,34.3,30.36,East,89,0.0,1.0,97,0.00,,,0.00,WUHU216DAVISVP2,2013-01-18 05:27:00,
2013-01-17 21:30:00,35.1,34.3,30.36,ENE,68,0.0,2.0,97,0.00,,,0.00,WUHU216DAVISVP2,2013-01-18 05:30:00,
2013-01-17 21:32:00,35.1,34.3,30.35,ESE,108,0.0,1.0,97,0.00,,,0.00,WUHU216DAVISVP2,2013-01-18 05:32:00,
2013-01-17 21:37:00,35.1,34.3,30.36,ENE,72,1.0,2.0,97,0.00,,,0.00,WUHU216DAVISVP2,2013-01-18 05:37:00,
2013-01-17 21:42:00,35.1,34.3,30.35,ENE,77,1.0,2.0,97,0.00,,,0.00,WUHU216DAVISVP2,2013-01-18 05:42:00,
2013-01-17 21:47:00,35.2,34.4,30.35,ENE,60,0.0,2.0,97,0.00,,,0.00,WUHU216DAVISVP2,2013-01-18 05:47:00,
2013-01-17 21:52:00,35.1,34.3,30.35,SE,132,0.0,2.0,97,0.00,,,0.00,WUHU216DAVISVP2,2013-01-18 05:52:00,
2013-01-17 21:57:00,35.0,34.2,30.35,ENE,68,0.0,2.0,97,0.00,,,0.00,WUHU216DAVISVP2,2013-01-18 05:57:00,
2013-01-17 22:00:00,35.0,34.2,30.35,ENE,68,0.0,2.0,97,0.00,,,0.00,WUHU216DAVISVP2,2013-01-18 06:00:00,
2013-01-17 22:02:00,35.0,34.2,30.35,East,101,0.0,2.0,97,0.00,,,0.00,WUHU216DAVISVP2,2013-01-18 06:02:00,
2013-01-17 22:07:00,34.9,34.1,30.35,SE,132,0.0,2.0,97,0.00,,,0.00,WUHU216DAVISVP2,2013-01-18 06:07:00,
2013-01-17 22:12:00,34.9,34.1,30.35,ESE,104,0.0,2.0,97,0.00,,,0.00,WUHU216DAVISVP2,2013-01-18 06:12:00,
2013-01-17 22:17:00,34.8,34.0,30.35,East,92,0.0,2.0,97,0.00,,,0.00,WUHU216DAVISVP2,2013-01-18 06:17:00,
2013-01-17 22:22:00,34.8,34.0,30.35,ESE,104,1.0,2.0,97,0.00,,,0.00,WUHU216DAVISVP2,2013-01-18 06:22:00,
2013-01-17 22:27:00,34.8,34.0,30.35,WSW,240,2.0,3.0,97,0.00,,,0.00,WUHU216DAVISVP2,2013-01-18 06:27:00,
2013-01-17 22:30:00,34.8,34.0,30.35,ENE,68,0.0,3.0,97,0.00,,,0.00,WUHU216DAVISVP2,2013-01-18 06:30:00,
2013-01-17 22:32:00,34.7,33.9,30.35,SW,215,0.0,3.0,97,0.00,,,0.00,WUHU216DAVISVP2,2013-01-18 06:32:00,
2013-01-17 22:37:00,34.8,34.0,30.34,ESE,108,0.0,3.0,97,0.00,,,0.00,WUHU216DAVISVP2,2013-01-18 06:37:00,
2013-01-17 22:42:00,34.7,33.9,30.34,WSW,248,0.0,2.0,97,0.00,,,0.00,WUHU216DAVISVP2,2013-01-18 06:42:00,
2013-01-17 22:47:00,34.7,33.9,30.34,ESE,104,0.0,2.0,97,0.00,,,0.00,WUHU216DAVISVP2,2013-01-18 06:47:00,
2013-01-17 22:52:00,34.7,33.9,30.34,ENE,61,2.0,3.0,97,0.00,,,0.00,WUHU216DAVISVP2,2013-01-18 06:52:00,
2013-01-17 22:57:00,34.5,33.7,30.34,East,99,0.0,3.0,97,0.00,,,0.00,WUHU216DAVISVP2,2013-01-18 06:57:00,
2013-01-17 23:00:00,34.5,33.7,30.34,ENE,68,0.0,3.0,97,0.00,,,0.00,WUHU216DAVISVP2,2013-01-18 07:00:00,
2013-01-17 23:02:00,34.6,33.8,30.34,SW,224,0.0,3.0,97,0.00,,,0.00,WUHU216DAVISVP2,2013-01-18 07:02:00,
2013-01-17 23:07:00,34.6,33.8,30.34,East,101,0.0,2.0,97,0.00,,,0.00,WUHU216DAVISVP2,2013-01-18 07:07:00,
2013-01-17 23:12:00,34.5,33.7,30.34,ENE,66,1.0,2.0,97,0.00,,,0.00,WUHU216DAVISVP2,2013-01-18 07:12:00,
2013-01-17 23:17:00,34.5,33.7,30.34,SE,145,0.0,2.0,97,0.00,,,0.00,WUHU216DAVISVP2,2013-01-18 07:17:00,
2013-01-17 23:22:00,34.5,33.7,30.34,ENE,63,1.0,2.0,97,0.00,,,0.00,WUHU216DAVISVP2,2013-01-18 07:22:00,
2013-01-17 23:27:00,34.4,33.6,30.34,NE,55,1.0,2.0,97,0.00,,,0.00,WUHU216DAVISVP2,2013-01-18 07:27:00,
2013-01-17 23:30:00,34.3,33.5,30.34,ENE,68,0.0,3.0,97,0.00,,,0.00,WUHU216DAVISVP2,2013-01-18 07:30:00,
2013-01-17 23:32:00,34.3,33.5,30.34,East,84,1.0,3.0,97,0.00,,,0.00,WUHU216DAVISVP2,2013-01-18 07:32:00,
2013-01-17 23:37:00,34.2,33.4,30.34,ESE,123,0.0,3.0,97,0.00,,,0.00,WUHU216DAVISVP2,2013-01-18 07:37:00,
2013-01-17 23:42:00,34.1,33.3,30.34,SSE,160,2.0,3.0,97,0.00,,,0.00,WUHU216DAVISVP2,2013-01-18 07:42:00,
2013-01-17 23:47:00,33.9,33.1,30.33,SSW,193,1.0,3.0,97,0.00,,,0.00,WUHU216DAVISVP2,2013-01-18 07:47:00,
2013-01-17 23:52:00,33.8,33.0,30.33,ENE,70,0.0,3.0,97,0.00,,,0.00,WUHU216DAVISVP2,2013-01-18 07:52:00,
2013-01-17 23:57:00,33.6,32.8,30.34,East,82,0.0,3.0,97,0.00,,,0.00,WUHU216DAVISVP2,2013-01-18 07:57:00,